Time;durP1;ratioP1;P1;durP2;ratioP2;P2;SDS_P1;SDS_P2;PMS_P1;PMS_P2;Temp;Humidity;BMP_temperature;BMP_pressure;BME280_temperature;BME280_humidity;BME280_pressure;Samples;Min_cycle;Max_cycle;Signal;HPM_P1;HPM_P2
2022/06/21 00:00:47;;;;;;;;;9.00;7.50;;;;;20.77;51.71;101212.53;2379611;28;48204;-93
2022/06/21 00:01:57;;;;;;;;;8.25;8.25;;;;;20.75;51.67;101209.13;2380783;28;44746;-93
2022/06/21 00:03:15;;;;;;;;;9.25;8.75;;;;;20.75;51.96;101202.91;2382038;28;48479;-94
2022/06/21 00:04:25;;;;;;;;;7.00;7.00;;;;;20.73;52.24;101205.69;2392305;28;44683;-92
2022/06/21 00:05:39;;;;;;;;;12.00;7.75;;;;;20.69;52.02;101202.38;2392926;28;48111;-92
2022/06/21 00:06:50;;;;;;;;;9.00;8.00;;;;;20.66;51.96;101194.59;2377937;28;45272;-92
2022/06/21 00:08:06;;;;;;;;;7.00;7.00;;;;;20.66;52.42;101194.59;2375795;28;45575;-93
2022/06/21 00:09:17;;;;;;;;;9.00;7.25;;;;;20.67;52.10;101190.94;2388650;28;45268;-93
2022/06/21 00:10:27;;;;;;;;;7.75;7.75;;;;;20.68;51.98;101195.34;2382912;28;47425;-92
2022/06/21 00:11:38;;;;;;;;;8.00;6.75;;;;;20.68;52.20;101184.66;2386269;28;45225;-93
2022/06/21 00:12:48;;;;;;;;;7.25;7.25;;;;;20.71;52.11;101185.41;2379291;28;45962;-89
2022/06/21 00:13:59;;;;;;;;;9.75;9.75;;;;;20.69;51.96;101189.03;2375326;28;44629;-89
2022/06/21 00:15:10;;;;;;;;;8.50;7.00;;;;;20.67;52.34;101174.91;2384062;28;45271;-89
2022/06/21 00:16:22;;;;;;;;;8.75;8.75;;;;;20.68;52.04;101173.97;2384056;28;44582;-88
2022/06/21 00:17:32;;;;;;;;;7.50;7.50;;;;;20.67;52.25;101174.06;2383865;28;45492;-90
2022/06/21 00:18:45;;;;;;;;;10.50;9.00;;;;;20.66;52.03;101175.91;2392860;28;44740;-89
2022/06/21 00:19:55;;;;;;;;;9.00;8.00;;;;;20.63;52.23;101176.09;2389640;28;46256;-90
2022/06/21 00:21:15;;;;;;;;;8.00;8.00;;;;;20.61;51.99;101179.84;2384152;28;44689;-89
2022/06/21 00:22:26;;;;;;;;;7.00;7.00;;;;;20.60;52.42;101181.66;2384048;28;45533;-90
2022/06/21 00:23:36;;;;;;;;;2.00;2.00;;;;;20.60;52.61;101181.66;2383673;28;45260;-92
2022/06/21 00:24:47;;;;;;;;;10.50;10.50;;;;;20.59;52.25;101179.97;2383456;28;46302;-92
2022/06/21 00:25:58;;;;;;;;;10.50;9.50;;;;;20.58;52.27;101178.22;2392423;28;45412;-86
2022/06/21 00:27:12;;;;;;;;;9.00;8.00;;;;;20.57;52.68;101176.50;2390118;28;45281;-86
2022/06/21 00:28:22;;;;;;;;;5.50;5.25;;;;;20.57;52.50;101172.03;2386107;28;44762;-86
2022/06/21 00:29:33;;;;;;;;;7.25;7.25;;;;;20.57;52.85;101171.16;2396754;28;46669;-86
2022/06/21 00:30:46;;;;;;;;;9.25;8.25;;;;;20.58;52.82;101172.91;2390283;28;44743;-85
2022/06/21 00:31:56;;;;;;;;;8.25;7.50;;;;;20.57;52.30;101169.38;2383273;28;46138;-84
2022/06/21 00:33:15;;;;;;;;;7.50;7.50;;;;;20.57;52.50;101176.50;2385683;28;45483;-83
2022/06/21 00:34:26;;;;;;;;;8.50;8.00;;;;;20.58;52.79;101179.09;2388173;28;46575;-86
2022/06/21 00:35:36;;;;;;;;;9.25;9.25;;;;;20.58;52.09;101170.22;2384017;28;45275;-86
2022/06/21 00:36:48;;;;;;;;;8.25;8.00;;;;;20.58;52.42;101176.44;2383921;28;45267;-86
2022/06/21 00:37:59;;;;;;;;;10.50;7.75;;;;;20.58;52.24;101184.44;2382279;28;45284;-87
2022/06/21 00:39:16;;;;;;;;;7.75;7.75;;;;;20.56;52.65;101178.34;2390774;28;46247;-84
2022/06/21 00:40:32;;;;;;;;;9.50;8.50;;;;;20.56;52.58;101174.81;2383711;28;45242;-84
2022/06/21 00:42:12;;;;;;;;;9.25;8.25;;;;;20.54;52.64;101180.28;2381927;28;45551;-84
2022/06/21 00:43:31;;;;;;;;;6.25;6.00;;;;;20.52;52.60;101179.50;2376936;28;45432;-84
2022/06/21 00:44:52;;;;;;;;;8.00;8.00;;;;;20.54;52.67;101171.41;2392462;28;46124;-84
2022/06/21 00:46:15;;;;;;;;;9.25;9.25;;;;;20.53;52.46;101169.69;2388194;28;45368;-84
2022/06/21 00:47:34;;;;;;;;;8.00;8.00;;;;;20.53;52.62;101175.03;2383840;28;45356;-84
2022/06/21 00:48:47;;;;;;;;;7.50;7.50;;;;;20.54;52.79;101172.28;2386019;28;45527;-84
2022/06/21 00:50:03;;;;;;;;;10.00;10.00;;;;;20.54;53.03;101166.06;2386348;28;46544;-84
2022/06/21 00:51:19;;;;;;;;;7.00;7.00;;;;;20.54;52.84;101176.75;2383985;28;45214;-84
2022/06/21 00:52:53;;;;;;;;;14.50;9.25;;;;;20.52;52.52;101176.84;2383657;28;45318;-84
2022/06/21 00:54:12;;;;;;;;;8.75;8.75;;;;;20.55;53.18;101173.09;2384046;28;45368;-84
2022/06/21 00:55:44;;;;;;;;;8.75;8.00;;;;;20.55;52.82;101181.09;2383841;28;45434;-84
2022/06/21 00:57:00;;;;;;;;;13.00;10.00;;;;;20.55;52.66;101178.44;2384089;28;45399;-84
2022/06/21 00:58:14;;;;;;;;;10.00;9.00;;;;;20.53;52.92;101188.38;2383649;28;46747;-83
2022/06/21 00:59:27;;;;;;;;;8.75;7.50;;;;;20.49;52.47;101185.06;2391796;28;45371;-84
2022/06/21 01:01:04;;;;;;;;;7.75;7.25;;;;;20.46;52.90;101187.94;2383800;28;45509;-83
2022/06/21 01:02:20;;;;;;;;;10.00;8.50;;;;;20.45;52.85;101189.75;2379451;28;44804;-84
2022/06/21 01:03:35;;;;;;;;;9.50;9.25;;;;;20.45;53.13;101189.75;2383770;28;46218;-84
2022/06/21 01:04:50;;;;;;;;;10.75;9.25;;;;;20.41;52.89;101185.59;2383930;28;44873;-83
2022/06/21 01:06:18;;;;;;;;;9.75;9.75;;;;;20.40;52.79;101188.34;2383707;28;46589;-83
2022/06/21 01:07:29;;;;;;;;;9.50;8.50;;;;;20.37;52.85;101188.59;2374684;28;45207;-84
2022/06/21 01:08:44;;;;;;;;;9.75;9.25;;;;;20.36;53.53;101190.38;2386370;28;46546;-84
2022/06/21 01:10:03;;;;;;;;;14.50;9.75;;;;;20.36;53.06;101190.38;2387808;28;45326;-83
2022/06/21 01:11:23;;;;;;;;;9.00;8.75;;;;;20.37;53.09;101188.59;2381859;28;45540;-83
2022/06/21 01:12:48;;;;;;;;;9.50;8.75;;;;;20.38;52.92;101188.47;2384022;28;44660;-83
2022/06/21 01:14:01;;;;;;;;;9.25;9.00;;;;;20.36;52.99;101187.72;2383820;28;46424;-84
2022/06/21 01:15:17;;;;;;;;;13.00;10.00;;;;;20.37;52.92;101180.56;2383763;28;45374;-84
2022/06/21 01:16:31;;;;;;;;;11.25;11.25;;;;;20.34;52.92;101184.31;2383106;28;45339;-84
2022/06/21 01:17:42;;;;;;;;;10.00;10.00;;;;;20.30;52.80;101180.09;2392313;28;45319;-87
2022/06/21 01:18:53;;;;;;;;;12.50;11.50;;;;;20.29;53.28;101187.28;2392239;28;47286;-86
2022/06/21 01:20:12;;;;;;;;;11.50;10.50;;;;;20.27;53.22;101202.56;2389663;28;44802;-86
2022/06/21 01:21:22;;;;;;;;;7.75;7.25;;;;;20.30;53.65;101196.13;2383748;28;48085;-89
2022/06/21 01:22:55;;;;;;;;;9.25;9.25;;;;;20.31;53.90;101204.03;2384886;28;45262;-91
2022/06/21 01:24:15;;;;;;;;;14.50;10.75;;;;;20.34;53.34;101200.31;2394669;28;46400;-87
2022/06/21 01:25:51;;;;;;;;;13.50;13.00;;;;;20.36;53.21;101190.38;2375177;28;45307;-86
2022/06/21 01:27:03;;;;;;;;;15.25;13.25;;;;;20.38;53.19;101187.59;2386900;28;46325;-86
2022/06/21 01:28:15;;;;;;;;;13.50;10.50;;;;;20.37;53.16;101186.78;2387663;28;45440;-86
2022/06/21 01:29:29;;;;;;;;;13.50;10.50;;;;;20.37;53.07;101183.25;2385607;28;45297;-86
2022/06/21 01:30:43;;;;;;;;;12.50;11.00;;;;;20.38;53.48;101182.25;2394830;28;45242;-86
2022/06/21 01:31:56;;;;;;;;;10.75;10.50;;;;;20.41;53.08;101182.06;2383925;28;46417;-86
2022/06/21 01:33:09;;;;;;;;;12.50;11.75;;;;;20.40;53.20;101191.88;2381433;28;45524;-87
2022/06/21 01:34:23;;;;;;;;;10.75;10.00;;;;;20.40;53.18;101194.53;2375938;28;46473;-85
2022/06/21 01:35:44;;;;;;;;;14.00;12.25;;;;;20.43;53.13;101201.50;2382209;28;45159;-84
2022/06/21 01:37:13;;;;;;;;;12.50;12.00;;;;;20.43;52.71;101206.84;2376542;28;45625;-87
2022/06/21 01:38:36;;;;;;;;;11.75;11.75;;;;;20.43;52.89;101223.72;2393758;28;45392;-87
2022/06/21 01:40:00;;;;;;;;;11.00;9.50;;;;;20.45;53.02;101221.78;2392509;28;47027;-91
2022/06/21 01:41:15;;;;;;;;;7.50;7.50;;;;;20.46;52.93;101214.66;2390047;28;45315;-92
2022/06/21 01:42:40;;;;;;;;;12.50;12.00;;;;;20.46;52.86;101212.84;2399792;28;46233;-88
2022/06/21 01:43:57;;;;;;;;;14.00;12.25;;;;;20.44;52.74;101222.78;2394228;28;45176;-87
2022/06/21 01:45:11;;;;;;;;;12.00;11.75;;;;;20.43;52.77;101221.03;2384633;28;45801;-87
2022/06/21 01:46:27;;;;;;;;;11.50;11.50;;;;;20.45;52.99;101229.78;2385379;28;44862;-87
2022/06/21 01:47:46;;;;;;;;;10.25;10.25;;;;;20.50;52.89;101236.63;2384317;28;45454;-89
2022/06/21 01:49:10;;;;;;;;;11.25;11.25;;;;;20.50;53.19;101241.97;2393735;28;45192;-90
2022/06/21 01:50:22;;;;;;;;;12.25;11.00;;;;;20.52;53.48;101242.75;2386926;28;47189;-88
2022/06/21 01:51:47;;;;;;;;;10.75;9.50;;;;;20.55;53.53;101245.19;2387338;28;44718;-86
2022/06/21 01:52:58;;;;;;;;;13.00;12.00;;;;;20.58;53.28;101263.69;2390389;28;45770;-86
2022/06/21 01:54:11;;;;;;;;;15.00;12.00;;;;;20.60;53.56;101269.75;2382310;28;45286;-86
2022/06/21 01:55:32;;;;;;;;;15.00;12.25;;;;;20.62;53.70;101275.84;2390838;28;47243;-85
2022/06/21 01:56:46;;;;;;;;;12.50;12.50;;;;;20.64;54.02;101275.78;2380841;28;45267;-89
2022/06/21 01:58:00;;;;;;;;;10.25;9.25;;;;;20.65;53.56;101281.00;2390675;28;45446;-91
2022/06/21 01:59:10;;;;;;;;;9.75;9.50;;;;;20.68;53.53;101291.47;2397150;28;45222;-91
2022/06/21 02:00:20;;;;;;;;;12.50;11.00;;;;;20.69;53.11;101285.16;2391182;28;45302;-90
2022/06/21 02:02:04;;;;;;;;;13.50;12.75;;;;;20.69;53.16;101276.31;2385184;28;45306;-91
2022/06/21 02:03:20;;;;;;;;;14.25;13.25;;;;;20.71;53.32;101285.06;2385219;28;45465;-91
2022/06/21 02:04:44;;;;;;;;;12.75;10.25;;;;;20.72;53.54;101280.59;2393832;28;45413;-91
2022/06/21 02:05:59;;;;;;;;;13.25;13.00;;;;;20.71;52.94;101274.41;2382413;28;48473;-91
2022/06/21 02:07:16;;;;;;;;;10.75;9.50;;;;;20.72;52.54;101276.09;2379364;28;45279;-90
2022/06/21 02:08:59;;;;;;;;;10.00;8.50;;;;;20.71;52.71;101278.88;2393622;28;48062;-90
2022/06/21 02:10:24;;;;;;;;;12.50;10.75;;;;;20.71;52.93;101278.88;2378127;28;45549;-87
2022/06/21 02:11:53;;;;;;;;;11.00;11.00;;;;;20.71;53.10;101273.53;2379978;28;45652;-86
2022/06/21 02:13:36;;;;;;;;;11.75;9.00;;;;;20.69;52.92;101269.13;2385196;28;45279;-88
2022/06/21 02:14:51;;;;;;;;;11.75;10.00;;;;;20.69;53.25;101265.63;2384976;28;46372;-87
2022/06/21 02:16:11;;;;;;;;;11.75;11.00;;;;;20.71;52.81;101262.84;2385201;28;45401;-88
2022/06/21 02:17:34;;;;;;;;;12.25;10.00;;;;;20.67;52.40;101263.06;2383222;28;47071;-87
2022/06/21 02:18:50;;;;;;;;;11.25;11.25;;;;;20.65;52.46;101256.97;2386366;28;44856;-88
2022/06/21 02:20:40;;;;;;;;;11.00;11.00;;;;;20.58;52.48;101239.66;2390428;28;46835;-88
2022/06/21 02:21:50;;;;;;;;;6.75;6.00;;;;;20.53;52.52;101231.97;2384084;28;45303;-90
2022/06/21 02:23:01;;;;;;;;;11.25;11.25;;;;;20.53;52.53;101236.44;2386588;28;47483;-92
2022/06/21 02:24:14;;;;;;;;;12.50;10.75;;;;;20.53;53.10;101233.75;2399025;28;44660;-91
2022/06/21 02:25:25;;;;;;;;;9.50;9.50;;;;;20.54;53.25;101232.81;2389509;28;45604;-92
2022/06/21 02:26:36;;;;;;;;;10.00;9.50;;;;;20.56;53.43;101222.88;2393734;28;45279;-91
2022/06/21 02:27:48;;;;;;;;;9.25;9.00;;;;;20.58;53.44;101228.97;2386980;28;47130;-91
2022/06/21 02:28:59;;;;;;;;;13.25;11.00;;;;;20.56;52.43;101210.41;2389247;28;45289;-90
2022/06/21 02:30:23;;;;;;;;;14.00;11.00;;;;;20.56;52.91;101212.19;2390861;28;48277;-91
2022/06/21 02:31:35;;;;;;;;;10.25;10.25;;;;;20.56;52.62;101212.19;2384674;28;45369;-92
2022/06/21 02:32:46;;;;;;;;;14.00;11.75;;;;;20.55;52.63;101208.66;2387392;28;48342;-92
2022/06/21 02:34:03;;;;;;;;;14.50;9.25;;;;;20.56;52.89;101206.88;2395957;28;45304;-92
2022/06/21 02:35:26;;;;;;;;;12.75;10.00;;;;;20.51;52.87;101201.84;2393593;28;46236;-91
2022/06/21 02:36:47;;;;;;;;;10.75;10.25;;;;;20.50;53.77;101201.94;2375589;28;44657;-90
2022/06/21 02:38:01;;;;;;;;;10.50;10.50;;;;;20.50;53.40;101204.59;2383239;28;46522;-91
2022/06/21 02:39:17;;;;;;;;;8.50;8.50;;;;;20.50;53.58;101196.59;2398283;28;44820;-91
2022/06/21 02:40:35;;;;;;;;;11.00;11.00;;;;;20.51;53.83;101187.63;2397462;28;46265;-91
2022/06/21 02:41:51;;;;;;;;;10.00;10.00;;;;;20.53;53.64;101185.69;2384148;28;45519;-91
2022/06/21 02:43:08;;;;;;;;;10.75;10.75;;;;;20.53;53.62;101185.69;2384494;28;45361;-92
2022/06/21 02:44:24;;;;;;;;;10.75;10.75;;;;;20.56;54.08;101201.53;2392795;28;45525;-90
2022/06/21 02:46:14;;;;;;;;;11.50;9.75;;;;;20.54;53.49;101198.09;2390522;28;45551;-91
2022/06/21 02:47:35;;;;;;;;;9.25;9.25;;;;;20.51;53.91;101196.50;2376983;28;45270;-86
2022/06/21 02:48:56;;;;;;;;;14.50;10.50;;;;;20.51;54.15;101192.97;2394105;28;45405;-87
2022/06/21 02:50:32;;;;;;;;;12.50;12.25;;;;;20.54;54.59;101200.78;2375709;28;44603;-85
2022/06/21 02:51:48;;;;;;;;;13.25;11.25;;;;;20.53;53.95;101196.38;2375454;28;45537;-85
2022/06/21 02:53:01;;;;;;;;;14.00;11.25;;;;;20.51;53.85;101192.97;2381549;28;44585;-87
2022/06/21 02:54:20;;;;;;;;;12.25;12.25;;;;;20.52;55.13;101192.84;2384714;28;45468;-87
2022/06/21 02:55:45;;;;;;;;;11.50;11.50;;;;;20.53;54.12;101193.72;2400761;28;44822;-87
2022/06/21 02:57:08;;;;;;;;;12.75;11.25;;;;;20.49;54.27;101193.09;2389216;28;47291;-86
2022/06/21 02:58:35;;;;;;;;;12.75;10.50;;;;;20.50;54.76;101189.44;2384380;28;45286;-85
2022/06/21 02:59:48;;;;;;;;;12.25;12.25;;;;;20.50;55.24;101183.22;2384556;28;45327;-85
2022/06/21 03:01:03;;;;;;;;;12.25;12.25;;;;;20.49;55.08;101189.56;2393301;28;45276;-88
2022/06/21 03:02:18;;;;;;;;;14.00;13.50;;;;;20.50;55.49;101178.75;2389358;28;47236;-87
2022/06/21 03:03:31;;;;;;;;;12.75;11.50;;;;;20.51;55.36;101180.47;2384279;28;45266;-87
2022/06/21 03:04:50;;;;;;;;;12.25;10.00;;;;;20.50;55.32;101173.41;2385050;28;46410;-87
2022/06/21 03:06:05;;;;;;;;;13.25;11.50;;;;;20.50;54.82;101175.22;2384786;28;45254;-87
2022/06/21 03:07:24;;;;;;;;;12.00;12.00;;;;;20.43;54.71;101167.66;2384254;28;45428;-87
2022/06/21 03:08:48;;;;;;;;;14.25;12.25;;;;;20.42;55.67;101163.25;2399905;28;44652;-87
2022/06/21 03:09:59;;;;;;;;;13.00;11.75;;;;;20.42;55.37;101167.78;2392953;28;48160;-87
2022/06/21 03:11:09;;;;;;;;;13.50;11.50;;;;;20.40;55.60;101164.31;2383853;28;45284;-87
2022/06/21 03:12:23;;;;;;;;;10.25;10.25;;;;;20.38;56.12;101167.09;2383646;28;45360;-87
2022/06/21 03:13:35;;;;;;;;;14.25;12.75;;;;;20.38;55.98;101161.78;2384619;28;45710;-87
2022/06/21 03:14:48;;;;;;;;;13.50;12.50;;;;;20.37;55.19;101148.53;2393011;28;47293;-87
2022/06/21 03:16:04;;;;;;;;;10.25;10.00;;;;;20.35;55.30;101151.28;2395551;28;45309;-87
2022/06/21 03:17:18;;;;;;;;;12.25;12.25;;;;;20.32;55.27;101149.69;2392838;28;47383;-86
2022/06/21 03:18:42;;;;;;;;;9.00;9.00;;;;;20.27;55.21;101148.31;2390703;28;45263;-94
2022/06/21 03:19:53;;;;;;;;;12.25;10.50;;;;;20.24;55.67;101139.56;2394381;28;48823;-93
2022/06/21 03:21:05;;;;;;;;;11.75;11.75;;;;;20.23;55.75;101140.50;2391409;28;44768;-94
2022/06/21 03:22:33;;;;;;;;;13.00;11.25;;;;;20.20;55.66;101130.03;2396043;28;48143;-94
2022/06/21 03:23:44;;;;;;;;;12.25;11.25;;;;;20.17;55.95;101124.06;2396097;28;45282;-94
2022/06/21 03:24:58;;;;;;;;;12.00;12.00;;;;;20.16;56.58;101120.53;2383959;28;46122;-94
2022/06/21 03:26:12;;;;;;;;;11.00;11.00;;;;;20.17;56.15;101116.94;2381304;28;44664;-90
2022/06/21 03:27:47;;;;;;;;;11.25;11.25;;;;;20.18;55.45;101117.75;2391863;28;48354;-90
2022/06/21 03:28:58;;;;;;;;;11.75;11.00;;;;;20.17;56.19;101106.25;2395307;28;44674;-90
2022/06/21 03:30:09;;;;;;;;;11.50;10.00;;;;;20.17;56.53;101108.06;2388732;28;45425;-90
2022/06/21 03:31:33;;;;;;;;;12.75;12.50;;;;;20.20;56.96;101102.53;2384491;28;45167;-88
2022/06/21 03:32:44;;;;;;;;;11.25;11.25;;;;;20.18;56.58;101094.59;2393023;28;47250;-90
2022/06/21 03:34:00;;;;;;;;;12.75;12.25;;;;;20.20;56.30;101090.00;2392311;28;45419;-90
2022/06/21 03:35:11;;;;;;;;;11.75;11.75;;;;;20.18;56.31;101085.72;2391978;28;47290;-96
2022/06/21 03:36:24;;;;;;;;;14.75;12.75;;;;;20.17;55.71;101089.38;2384725;28;45295;-93
2022/06/21 03:37:37;;;;;;;;;10.00;10.00;;;;;20.10;55.43;101081.75;2387026;28;47240;-96
2022/06/21 03:39:00;;;;;;;;;13.75;13.75;;;;;20.04;55.95;101078.66;2390317;28;45280;-93
2022/06/21 03:41:47;;;;;;;;;11.75;11.75;;;;;19.95;56.88;101074.81;2387624;28;45246;-94
2022/06/21 03:43:27;;;;;;;;;10.75;10.75;;;;;19.94;56.24;101062.41;2393433;28;47309;-95
2022/06/21 03:44:44;;;;;;;;;14.00;11.50;;;;;19.93;56.45;101072.22;2376312;28;45528;-92
2022/06/21 03:46:00;;;;;;;;;13.75;12.75;;;;;19.93;56.54;101055.38;2390660;28;48318;-94
2022/06/21 03:47:23;;;;;;;;;11.75;11.75;;;;;19.92;56.83;101056.34;2398433;28;45182;-91
2022/06/21 03:48:42;;;;;;;;;12.75;12.00;;;;;19.87;56.34;101045.97;2385127;28;48246;-92
2022/06/21 03:50:05;;;;;;;;;12.25;10.50;;;;;19.83;56.66;101040.00;2396876;28;45457;-90
2022/06/21 03:51:20;;;;;;;;;15.50;13.75;;;;;19.81;56.67;101044.56;2379650;28;46906;-91
2022/06/21 03:52:44;;;;;;;;;16.00;14.25;;;;;19.79;56.68;101036.69;2389424;28;45496;-92
2022/06/21 03:54:07;;;;;;;;;11.75;11.75;;;;;19.76;56.46;101026.22;2391607;28;48133;-88
2022/06/21 03:55:23;;;;;;;;;13.50;13.50;;;;;19.72;57.17;101031.88;2392741;28;44620;-88
2022/06/21 03:56:46;;;;;;;;;13.50;11.50;;;;;19.66;56.96;101023.31;2392658;28;47313;-89
2022/06/21 03:58:23;;;;;;;;;13.00;12.50;;;;;19.67;56.94;101024.19;2388841;28;45287;-88
2022/06/21 03:59:52;;;;;;;;;14.25;12.50;;;;;19.66;57.41;101019.78;2372800;28;45581;-89
2022/06/21 04:01:14;;;;;;;;;14.25;13.25;;;;;19.62;57.83;101021.84;2384311;28;45462;-90
2022/06/21 04:02:39;;;;;;;;;16.25;13.00;;;;;19.64;57.47;101032.38;2398603;28;47940;-89
2022/06/21 04:04:14;;;;;;;;;16.00;15.25;;;;;19.62;57.12;101021.84;2385228;28;45309;-89
2022/06/21 04:05:43;;;;;;;;;13.75;13.75;;;;;19.59;57.29;101027.38;2377688;28;46323;-89
2022/06/21 04:07:19;;;;;;;;;12.50;12.50;;;;;19.54;57.35;101027.69;2380746;28;45162;-89
2022/06/21 04:08:39;;;;;;;;;14.25;12.50;;;;;19.49;57.88;101018.25;2374931;28;45789;-90
2022/06/21 04:10:00;;;;;;;;;16.75;14.75;;;;;19.44;58.14;101021.25;2381489;28;45223;-90
2022/06/21 04:11:39;;;;;;;;;13.75;13.50;;;;;19.40;58.11;101012.59;2375328;28;46369;-89
2022/06/21 04:12:54;;;;;;;;;15.50;14.50;;;;;19.41;59.03;101000.97;2370122;28;44638;-89
2022/06/21 04:14:40;;;;;;;;;13.25;11.50;;;;;19.44;59.05;100998.13;2391961;28;47021;-90
2022/06/21 04:15:59;;;;;;;;;15.25;14.25;;;;;19.44;58.80;100990.13;2330486;29;45530;-88
2022/06/21 04:17:23;;;;;;;;;15.00;14.00;;;;;19.43;58.28;100995.56;2383401;28;47213;-88
2022/06/21 04:18:39;;;;;;;;;15.50;13.50;;;;;19.42;58.45;100983.19;2387666;28;45286;-89
2022/06/21 04:19:57;;;;;;;;;15.75;14.50;;;;;19.43;58.46;100987.56;2389737;28;46477;-90
2022/06/21 04:21:38;;;;;;;;;14.50;13.75;;;;;19.42;58.92;100983.19;2384290;28;45215;-88
2022/06/21 04:22:59;;;;;;;;;9.75;9.75;;;;;19.34;59.14;100989.00;2392067;28;45412;-90
2022/06/21 04:24:12;;;;;;;;;14.25;14.25;;;;;19.32;59.12;100989.13;2374160;28;45246;-88
2022/06/21 04:25:32;;;;;;;;;15.50;12.75;;;;;19.29;59.78;100983.13;2377406;28;45341;-89
2022/06/21 04:27:00;;;;;;;;;16.50;15.00;;;;;19.26;59.15;100968.19;2378332;28;45484;-89
2022/06/21 04:28:22;;;;;;;;;12.75;12.75;;;;;19.26;59.37;100973.53;2384088;28;45487;-86
2022/06/21 04:29:54;;;;;;;;;13.50;13.00;;;;;19.23;59.08;100971.09;2391176;28;45363;-85
2022/06/21 04:31:14;;;;;;;;;13.75;13.75;;;;;19.19;59.41;100964.25;2378665;28;45753;-88
2022/06/21 04:32:27;;;;;;;;;13.50;13.50;;;;;19.16;59.65;100961.78;2397409;28;45305;-89
2022/06/21 04:33:44;;;;;;;;;10.75;10.75;;;;;19.09;60.09;100964.81;2385274;28;47299;-89
2022/06/21 04:35:08;;;;;;;;;13.25;11.75;;;;;19.01;59.71;100954.66;2385394;28;44795;-88
2022/06/21 04:36:41;;;;;;;;;13.00;12.00;;;;;18.97;60.29;100954.97;2383997;28;45334;-87
2022/06/21 04:38:16;;;;;;;;;11.75;11.75;;;;;18.98;61.15;100954.91;2383677;28;45335;-87
2022/06/21 04:39:50;;;;;;;;;11.75;11.25;;;;;18.97;60.04;100955.84;2395735;28;47275;-87
2022/06/21 04:41:35;;;;;;;;;19.75;15.00;;;;;18.95;60.23;100956.88;2386498;28;45171;-86
2022/06/21 04:42:52;;;;;;;;;13.00;13.00;;;;;18.95;60.54;100960.41;2374285;28;46530;-90
2022/06/21 04:44:15;;;;;;;;;19.25;14.75;;;;;18.94;60.22;100972.00;2392724;28;44720;-91
2022/06/21 04:45:34;;;;;;;;;14.25;12.50;;;;;18.91;59.74;100972.22;2388340;28;46484;-91
2022/06/21 04:46:55;;;;;;;;;17.50;15.00;;;;;18.84;60.24;100969.09;2392083;28;44763;-89
2022/06/21 04:48:24;;;;;;;;;10.75;10.75;;;;;18.85;60.37;100972.59;2388951;28;45358;-89
2022/06/21 04:49:41;;;;;;;;;14.25;13.50;;;;;18.80;60.38;100967.59;2392604;28;45362;-90
2022/06/21 04:51:25;;;;;;;;;18.00;16.25;;;;;18.76;60.46;100968.75;2389177;28;45685;-89
2022/06/21 04:52:44;;;;;;;;;13.00;12.00;;;;;18.75;60.64;100965.22;2393083;28;45311;-91
2022/06/21 04:54:00;;;;;;;;;15.75;13.50;;;;;18.72;60.29;100965.41;2390999;28;48238;-91
2022/06/21 04:55:17;;;;;;;;;11.00;10.25;;;;;18.71;60.87;100973.50;2395491;28;45206;-90
2022/06/21 04:56:36;;;;;;;;;14.50;13.50;;;;;18.72;60.32;100969.88;2390397;28;45431;-89
2022/06/21 04:57:47;;;;;;;;;12.50;11.75;;;;;18.69;60.45;100970.09;2384958;28;45381;-94
2022/06/21 04:58:59;;;;;;;;;12.50;12.50;;;;;18.64;60.56;100963.22;2387097;28;48058;-90
2022/06/21 05:00:17;;;;;;;;;12.00;12.00;;;;;18.62;60.68;100965.16;2394190;28;44609;-89
2022/06/21 05:01:30;;;;;;;;;15.50;14.25;;;;;18.61;60.53;100968.78;2390851;28;45417;-87
2022/06/21 05:02:49;;;;;;;;;16.00;15.25;;;;;18.63;60.89;100974.84;2392463;28;45222;-88
2022/06/21 05:04:25;;;;;;;;;12.75;12.25;;;;;18.67;60.86;100981.69;2387609;28;45585;-91
2022/06/21 05:05:37;;;;;;;;;15.25;15.25;;;;;18.73;61.59;100987.56;2384798;28;45341;-91
2022/06/21 05:06:49;;;;;;;;;15.00;13.75;;;;;18.76;61.27;101003.34;2393874;28;47564;-93
2022/06/21 05:08:19;;;;;;;;;16.75;16.75;;;;;18.82;61.08;101008.28;2391310;28;45291;-89
2022/06/21 05:09:32;;;;;;;;;15.50;14.50;;;;;18.85;61.01;101008.09;2387324;28;47074;-89
2022/06/21 05:10:54;;;;;;;;;15.00;14.25;;;;;18.87;61.17;101010.63;2388059;28;45414;-88
2022/06/21 05:12:11;;;;;;;;;14.75;14.75;;;;;18.93;61.34;101006.75;2385361;28;45583;-88
2022/06/21 05:13:26;;;;;;;;;14.50;14.50;;;;;18.96;61.69;101009.22;2385480;28;45183;-89
2022/06/21 05:14:41;;;;;;;;;14.50;13.75;;;;;18.94;60.97;100995.97;2384601;28;47430;-89
2022/06/21 05:15:53;;;;;;;;;12.25;12.25;;;;;18.92;59.76;101002.34;2385001;28;45404;-89
2022/06/21 05:17:09;;;;;;;;;14.00;14.00;;;;;18.88;60.26;101001.72;2385231;28;45433;-89
2022/06/21 05:18:35;;;;;;;;;13.75;12.25;;;;;18.84;60.48;101008.19;2393375;28;45492;-90
2022/06/21 05:19:51;;;;;;;;;15.75;14.25;;;;;18.84;60.76;101005.53;2394160;28;46293;-86
2022/06/21 05:21:26;;;;;;;;;12.50;12.25;;;;;18.86;61.28;101022.25;2389947;28;45380;-87
2022/06/21 05:22:41;;;;;;;;;15.25;12.75;;;;;18.89;61.47;101030.91;2384704;28;45458;-88
2022/06/21 05:23:51;;;;;;;;;14.25;14.25;;;;;18.94;61.08;101029.75;2385389;28;44842;-87
2022/06/21 05:25:07;;;;;;;;;15.00;15.00;;;;;18.98;61.18;101025.94;2381707;28;45424;-87
2022/06/21 05:26:30;;;;;;;;;14.75;14.25;;;;;19.02;61.83;101014.13;2377933;28;45484;-87
2022/06/21 05:27:51;;;;;;;;;13.75;13.25;;;;;19.06;61.09;101014.78;2375984;28;45515;-89
2022/06/21 05:29:11;;;;;;;;;15.25;12.25;;;;;19.06;60.21;101015.63;2385067;28;45310;-90
2022/06/21 05:30:39;;;;;;;;;15.25;14.50;;;;;19.02;60.65;101011.47;2396301;28;47238;-86
2022/06/21 05:31:55;;;;;;;;;14.00;13.75;;;;;18.97;60.17;101002.91;2393888;28;45179;-83
2022/06/21 05:33:15;;;;;;;;;15.00;13.25;;;;;18.92;60.13;101007.69;2392916;28;46634;-85
2022/06/21 05:34:34;;;;;;;;;14.00;12.75;;;;;18.89;60.50;101006.94;2402867;28;45468;-85
2022/06/21 05:35:45;;;;;;;;;12.75;12.75;;;;;18.86;60.39;101004.47;2389616;28;47108;-85
2022/06/21 05:37:13;;;;;;;;;13.25;11.50;;;;;18.87;60.45;101000.84;2384632;28;44711;-85
2022/06/21 05:38:27;;;;;;;;;14.75;13.50;;;;;18.93;60.57;101012.06;2385210;28;45480;-87
2022/06/21 05:39:47;;;;;;;;;17.00;15.50;;;;;18.93;61.20;101006.75;2390319;28;45583;-83
2022/06/21 05:41:29;;;;;;;;;17.75;15.50;;;;;18.97;61.03;101013.56;2385735;28;45656;-84
2022/06/21 05:42:41;;;;;;;;;15.00;14.00;;;;;18.97;60.45;101016.22;2393504;28;44659;-84
2022/06/21 05:43:52;;;;;;;;;14.75;12.75;;;;;18.95;59.72;101012.81;2391128;28;45504;-84
2022/06/21 05:45:11;;;;;;;;;15.25;14.00;;;;;18.92;59.58;101016.53;2382708;28;45362;-84
2022/06/21 05:46:25;;;;;;;;;14.50;14.50;;;;;18.92;60.07;101013.88;2378659;28;45673;-84
2022/06/21 05:47:55;;;;;;;;;16.25;12.75;;;;;18.91;59.73;101012.16;2385129;28;45309;-84
2022/06/21 05:49:10;;;;;;;;;16.25;13.00;;;;;18.89;59.63;100998.94;2384549;28;45577;-84
2022/06/21 05:50:26;;;;;;;;;16.75;16.50;;;;;18.88;59.86;101007.03;2385149;28;44656;-85
2022/06/21 05:51:37;;;;;;;;;14.50;14.50;;;;;18.84;60.42;100993.03;2385106;28;45638;-88
2022/06/21 05:52:55;;;;;;;;;15.25;15.25;;;;;18.83;59.56;100999.34;2385025;28;45250;-88
2022/06/21 05:54:11;;;;;;;;;13.50;13.50;;;;;18.82;60.80;100994.97;2385023;28;46138;-87
2022/06/21 05:55:27;;;;;;;;;16.50;14.00;;;;;18.84;61.36;101000.22;2384418;28;47288;-88
2022/06/21 05:56:39;;;;;;;;;14.50;13.50;;;;;18.88;61.68;100991.91;2385000;28;45305;-89
2022/06/21 05:57:54;;;;;;;;;12.00;11.50;;;;;18.95;61.27;100996.84;2384752;28;45273;-89
2022/06/21 05:59:08;;;;;;;;;13.75;13.75;;;;;18.97;60.06;100994.91;2384904;28;45285;-88
2022/06/21 06:00:27;;;;;;;;;15.50;13.00;;;;;19.01;60.17;101007.09;2384361;28;44843;-88
2022/06/21 06:01:46;;;;;;;;;14.75;14.00;;;;;19.04;61.23;101001.56;2378680;28;48103;-88